Time;durP1;ratioP1;P1;durP2;ratioP2;P2;SDS_P1;SDS_P2;PMS_P1;PMS_P2;Temp;Humidity;BMP_temperature;BMP_pressure;BME280_temperature;BME280_humidity;BME280_pressure;Samples;Min_cycle;Max_cycle;Signal;HPM_P1;HPM_P2
2022/11/13 00:52:08;;;;;;;3.40;0.63;;;;;;;;;;7388240;19;20630;-63
2022/11/13 00:54:33;;;;;;;0.20;0.20;;;;;;;;;;7381531;19;20113;-63
2022/11/13 00:56:59;;;;;;;0.30;0.30;;;;;;;;;;7381884;19;20129;-63
2022/11/13 00:59:24;;;;;;;0.30;0.30;;;;;;;;;;7375651;19;20152;-63
2022/11/13 01:01:49;;;;;;;0.47;0.47;;;;;;;;;;7375521;19;20132;-63
2022/11/13 01:04:15;;;;;;;0.20;0.20;;;;;;;;;;7366784;19;20147;-63
2022/11/13 01:06:40;;;;;;;0.53;0.53;;;;;;;;;;7383947;19;20140;-63
2022/11/13 01:09:05;;;;;;;0.20;0.20;;;;;;;;;;7373201;19;20136;-62
2022/11/13 01:11:30;;;;;;;1.60;0.63;;;;;;;;;;7378568;19;20124;-63
2022/11/13 01:13:56;;;;;;;0.20;0.20;;;;;;;;;;7380483;19;20515;-63
2022/11/13 01:16:23;;;;;;;0.30;0.30;;;;;;;;;;7381997;19;20145;-63
2022/11/13 01:18:49;;;;;;;0.30;0.30;;;;;;;;;;7386196;19;20160;-63
2022/11/13 01:21:17;;;;;;;0.30;0.30;;;;;;;;;;7381059;19;20117;-63
2022/11/13 01:23:43;;;;;;;0.30;0.30;;;;;;;;;;7381248;19;20121;-63
2022/11/13 01:26:11;;;;;;;0.40;0.40;;;;;;;;;;7377643;19;20533;-63
2022/11/13 01:28:37;;;;;;;0.30;0.30;;;;;;;;;;7362426;19;20157;-63
2022/11/13 01:31:05;;;;;;;0.40;0.40;;;;;;;;;;7370308;19;20133;-63
2022/11/13 01:33:30;;;;;;;0.27;0.27;;;;;;;;;;7368869;19;20137;-63
2022/11/13 01:36:00;;;;;;;0.30;0.30;;;;;;;;;;7383578;19;20125;-63
2022/11/13 01:38:26;;;;;;;0.30;0.30;;;;;;;;;;7383474;19;20145;-63
2022/11/13 01:40:51;;;;;;;0.30;0.30;;;;;;;;;;7387747;19;20124;-63
2022/11/13 01:43:25;;;;;;;0.30;0.30;;;;;;;;;;7384376;19;20493;-63
2022/11/13 01:45:56;;;;;;;0.30;0.30;;;;;;;;;;7386537;19;20142;-63
2022/11/13 01:48:21;;;;;;;0.50;0.50;;;;;;;;;;7385462;19;20479;-63
2022/11/13 01:50:47;;;;;;;0.30;0.30;;;;;;;;;;7387883;19;20210;-63
2022/11/13 01:53:12;;;;;;;0.70;0.70;;;;;;;;;;7385908;19;20125;-63
2022/11/13 01:55:37;;;;;;;0.30;0.30;;;;;;;;;;7384849;19;20126;-63
2022/11/13 01:58:03;;;;;;;0.20;0.20;;;;;;;;;;7395075;19;20677;-63
2022/11/13 02:00:29;;;;;;;0.33;0.33;;;;;;;;;;7392282;19;20133;-63
2022/11/13 02:02:54;;;;;;;0.20;0.20;;;;;;;;;;7392580;19;20164;-63
2022/11/13 02:05:19;;;;;;;0.37;0.37;;;;;;;;;;7393650;19;20606;-63
2022/11/13 02:07:45;;;;;;;0.40;0.40;;;;;;;;;;7395257;19;20117;-62
2022/11/13 02:10:11;;;;;;;0.20;0.20;;;;;;;;;;7390578;19;21277;-62
2022/11/13 02:12:40;;;;;;;0.67;0.37;;;;;;;;;;7391248;19;20140;-62
2022/11/13 02:15:07;;;;;;;0.50;0.50;;;;;;;;;;7390177;19;20121;-62
2022/11/13 02:17:41;;;;;;;0.30;0.30;;;;;;;;;;7381606;19;20148;-62
2022/11/13 02:20:07;;;;;;;0.20;0.20;;;;;;;;;;7386265;19;20152;-62
2022/11/13 02:22:37;;;;;;;0.30;0.30;;;;;;;;;;7386928;19;20153;-62
2022/11/13 02:25:03;;;;;;;0.30;0.30;;;;;;;;;;7392653;19;20140;-63
2022/11/13 02:27:43;;;;;;;0.20;0.20;;;;;;;;;;7393521;19;20189;-62
2022/11/13 02:30:20;;;;;;;0.30;0.30;;;;;;;;;;7391383;19;20144;-62
2022/11/13 02:32:48;;;;;;;0.30;0.30;;;;;;;;;;7391676;19;20203;-62
2022/11/13 02:35:16;;;;;;;0.20;0.20;;;;;;;;;;7389395;19;20133;-62
2022/11/13 02:37:41;;;;;;;0.60;0.60;;;;;;;;;;7392736;19;20142;-62
2022/11/13 02:40:07;;;;;;;0.30;0.30;;;;;;;;;;7390845;19;20149;-62
2022/11/13 02:42:32;;;;;;;0.43;0.43;;;;;;;;;;7392881;19;20159;-62
2022/11/13 02:44:58;;;;;;;2.13;1.10;;;;;;;;;;7392011;19;20117;-62
2022/11/13 02:47:23;;;;;;;0.73;0.60;;;;;;;;;;7393765;19;20136;-62
2022/11/13 02:49:49;;;;;;;0.20;0.20;;;;;;;;;;7387227;19;20215;-64
2022/11/13 02:52:14;;;;;;;0.43;0.43;;;;;;;;;;7392301;19;20589;-62
2022/11/13 02:54:39;;;;;;;0.40;0.40;;;;;;;;;;7390792;19;20140;-62
2022/11/13 02:57:04;;;;;;;0.20;0.20;;;;;;;;;;7392034;19;20144;-62
2022/11/13 02:59:30;;;;;;;0.30;0.30;;;;;;;;;;7390996;19;20686;-62
2022/11/13 03:01:55;;;;;;;0.30;0.30;;;;;;;;;;7392392;19;20163;-62
2022/11/13 03:04:20;;;;;;;0.30;0.30;;;;;;;;;;7391507;19;20212;-62
2022/11/13 03:06:46;;;;;;;0.20;0.20;;;;;;;;;;7389617;19;20140;-62
2022/11/13 03:09:11;;;;;;;0.50;0.50;;;;;;;;;;7392432;19;20141;-62
2022/11/13 03:11:36;;;;;;;0.30;0.30;;;;;;;;;;7391354;19;20129;-62
2022/11/13 03:14:02;;;;;;;0.30;0.30;;;;;;;;;;7390796;19;20147;-62
2022/11/13 03:16:27;;;;;;;0.20;0.20;;;;;;;;;;7390861;19;20117;-62
2022/11/13 03:18:54;;;;;;;0.30;0.30;;;;;;;;;;7391219;19;20168;-62
2022/11/13 03:21:19;;;;;;;0.30;0.30;;;;;;;;;;7388424;19;20128;-62
2022/11/13 03:23:45;;;;;;;0.40;0.40;;;;;;;;;;7392100;19;20121;-63
2022/11/13 03:26:12;;;;;;;0.30;0.30;;;;;;;;;;7392562;19;20137;-62
2022/11/13 03:28:37;;;;;;;0.20;0.20;;;;;;;;;;7389639;19;20145;-62
2022/11/13 03:31:03;;;;;;;0.30;0.30;;;;;;;;;;7392383;19;20178;-62
2022/11/13 03:33:29;;;;;;;0.30;0.30;;;;;;;;;;7388289;19;20140;-62
2022/11/13 03:35:55;;;;;;;0.20;0.20;;;;;;;;;;7389264;19;20129;-62
2022/11/13 03:38:20;;;;;;;0.30;0.30;;;;;;;;;;7382517;19;20148;-62
2022/11/13 03:40:46;;;;;;;0.20;0.20;;;;;;;;;;7390334;19;20487;-63
2022/11/13 03:43:11;;;;;;;0.20;0.20;;;;;;;;;;7388334;19;20148;-62
2022/11/13 03:45:36;;;;;;;0.40;0.40;;;;;;;;;;7390706;19;20221;-62
2022/11/13 03:48:02;;;;;;;0.30;0.30;;;;;;;;;;7391432;19;20729;-62
2022/11/13 03:50:27;;;;;;;0.20;0.20;;;;;;;;;;7387347;19;20125;-62
2022/11/13 03:52:52;;;;;;;0.20;0.20;;;;;;;;;;7388097;19;20125;-62
2022/11/13 03:55:18;;;;;;;0.20;0.20;;;;;;;;;;7385823;19;20132;-62
2022/11/13 03:57:43;;;;;;;0.30;0.30;;;;;;;;;;7390043;19;20125;-62
2022/11/13 04:00:09;;;;;;;0.20;0.20;;;;;;;;;;7387849;19;20622;-62
2022/11/13 04:02:34;;;;;;;0.23;0.23;;;;;;;;;;7390118;19;20141;-62
2022/11/13 04:05:00;;;;;;;0.30;0.30;;;;;;;;;;7378837;19;20121;-62
2022/11/13 04:07:25;;;;;;;1.50;0.97;;;;;;;;;;7388606;19;20137;-62
2022/11/13 04:09:50;;;;;;;0.30;0.30;;;;;;;;;;7386686;19;20180;-63
2022/11/13 04:12:16;;;;;;;0.60;0.60;;;;;;;;;;7384857;19;20118;-63
2022/11/13 04:14:41;;;;;;;0.30;0.30;;;;;;;;;;7388862;19;20144;-63
2022/11/13 04:17:06;;;;;;;0.20;0.20;;;;;;;;;;7384399;19;20130;-63
2022/11/13 04:19:31;;;;;;;0.20;0.20;;;;;;;;;;7383730;19;20173;-63
2022/11/13 04:21:57;;;;;;;0.40;0.40;;;;;;;;;;7386635;19;20123;-63
2022/11/13 04:24:22;;;;;;;0.30;0.30;;;;;;;;;;7388422;19;20125;-63
2022/11/13 04:26:47;;;;;;;0.20;0.20;;;;;;;;;;7382367;19;20503;-63
2022/11/13 04:29:12;;;;;;;0.27;0.27;;;;;;;;;;7374223;19;20153;-63
2022/11/13 04:31:38;;;;;;;0.30;0.30;;;;;;;;;;7367145;19;20133;-63
2022/11/13 04:34:03;;;;;;;1.17;1.17;;;;;;;;;;7377256;19;20594;-63
2022/11/13 04:36:28;;;;;;;0.30;0.30;;;;;;;;;;7380486;19;20125;-63
2022/11/13 04:38:54;;;;;;;0.27;0.27;;;;;;;;;;7379242;19;20161;-63
2022/11/13 04:44:03;;;;;;;0.20;0.20;;;;;;;;;;7382102;19;20140;-63
2022/11/13 04:46:28;;;;;;;0.30;0.30;;;;;;;;;;7381897;19;20125;-63
2022/11/13 04:48:53;;;;;;;0.20;0.20;;;;;;;;;;7378021;19;20153;-63
2022/11/13 04:51:19;;;;;;;0.30;0.30;;;;;;;;;;7385762;19;20463;-63
2022/11/13 04:53:44;;;;;;;0.30;0.30;;;;;;;;;;7379446;19;20129;-63
2022/11/13 04:56:09;;;;;;;0.20;0.20;;;;;;;;;;7380947;19;20193;-63
2022/11/13 04:58:35;;;;;;;0.30;0.30;;;;;;;;;;7381605;19;20149;-63
2022/11/13 05:01:02;;;;;;;0.40;0.40;;;;;;;;;;7382743;19;20447;-63
2022/11/13 05:03:28;;;;;;;0.20;0.20;;;;;;;;;;7376788;19;20619;-63
2022/11/13 05:06:00;;;;;;;0.30;0.30;;;;;;;;;;7379112;19;20148;-63
2022/11/13 05:08:26;;;;;;;0.20;0.20;;;;;;;;;;7381722;19;20220;-63
2022/11/13 05:10:51;;;;;;;0.20;0.20;;;;;;;;;;7373821;19;20121;-63
2022/11/13 05:13:16;;;;;;;0.50;0.43;;;;;;;;;;7370536;19;20867;-63
2022/11/13 05:15:41;;;;;;;0.40;0.40;;;;;;;;;;7379548;19;20141;-63
2022/11/13 05:18:07;;;;;;;0.30;0.30;;;;;;;;;;7384722;19;20155;-62
2022/11/13 05:20:32;;;;;;;0.60;0.60;;;;;;;;;;7386749;19;20124;-62
2022/11/13 05:22:57;;;;;;;0.23;0.23;;;;;;;;;;7377832;19;20121;-62
2022/11/13 05:25:23;;;;;;;0.30;0.30;;;;;;;;;;7383744;19;20121;-62
2022/11/13 05:27:48;;;;;;;0.20;0.20;;;;;;;;;;7380163;19;20490;-62
2022/11/13 05:30:14;;;;;;;0.67;0.67;;;;;;;;;;7374195;19;20137;-63
2022/11/13 05:32:39;;;;;;;0.30;0.30;;;;;;;;;;7386411;19;20152;-62
2022/11/13 05:35:04;;;;;;;0.50;0.50;;;;;;;;;;7382349;19;20120;-62
2022/11/13 05:37:30;;;;;;;0.30;0.30;;;;;;;;;;7385926;19;20141;-62
2022/11/13 05:39:55;;;;;;;0.30;0.30;;;;;;;;;;7378891;19;20141;-62
2022/11/13 05:42:20;;;;;;;0.27;0.27;;;;;;;;;;7386024;19;20598;-63
2022/11/13 05:44:46;;;;;;;0.53;0.53;;;;;;;;;;7386194;19;20158;-62
2022/11/13 05:47:11;;;;;;;0.30;0.30;;;;;;;;;;7384753;19;20129;-62
2022/11/13 05:49:36;;;;;;;0.30;0.30;;;;;;;;;;7385989;19;20152;-62
2022/11/13 05:52:01;;;;;;;0.40;0.40;;;;;;;;;;7382884;19;20129;-62
2022/11/13 05:54:27;;;;;;;0.30;0.30;;;;;;;;;;7387425;19;20632;-62
2022/11/13 05:56:52;;;;;;;0.20;0.20;;;;;;;;;;7386708;19;20135;-62
2022/11/13 05:59:17;;;;;;;0.83;0.70;;;;;;;;;;7380897;19;20669;-63
2022/11/13 06:01:43;;;;;;;0.20;0.20;;;;;;;;;;7380700;19;20129;-63
2022/11/13 06:04:08;;;;;;;0.23;0.23;;;;;;;;;;7379602;19;20117;-63
2022/11/13 06:06:34;;;;;;;0.30;0.30;;;;;;;;;;7384307;19;20129;-63
2022/11/13 06:09:01;;;;;;;0.20;0.20;;;;;;;;;;7388942;19;20182;-63
2022/11/13 06:11:28;;;;;;;0.50;0.50;;;;;;;;;;7382050;19;20144;-63
2022/11/13 06:13:54;;;;;;;0.20;0.20;;;;;;;;;;7374454;19;20129;-63
2022/11/13 06:16:25;;;;;;;0.30;0.30;;;;;;;;;;7383184;19;20208;-63
2022/11/13 06:18:54;;;;;;;0.30;0.30;;;;;;;;;;7384537;19;20176;-63
2022/11/13 06:21:21;;;;;;;0.20;0.20;;;;;;;;;;7380650;19;20153;-63
2022/11/13 06:23:47;;;;;;;0.20;0.20;;;;;;;;;;7383706;19;20501;-63
2022/11/13 06:26:16;;;;;;;0.30;0.30;;;;;;;;;;7382076;19;20124;-62
2022/11/13 06:28:41;;;;;;;0.20;0.20;;;;;;;;;;7381017;19;20145;-63
2022/11/13 06:31:09;;;;;;;0.30;0.30;;;;;;;;;;7376374;19;20124;-63
2022/11/13 06:33:35;;;;;;;0.60;0.60;;;;;;;;;;7386050;19;20132;-63
2022/11/13 06:36:02;;;;;;;0.30;0.30;;;;;;;;;;7388393;19;20121;-63
2022/11/13 06:38:31;;;;;;;0.20;0.20;;;;;;;;;;7387395;19;20158;-63
2022/11/13 06:40:57;;;;;;;0.30;0.30;;;;;;;;;;7378958;19;20538;-63
2022/11/13 06:43:22;;;;;;;0.30;0.30;;;;;;;;;;7381796;19;20162;-63
2022/11/13 06:45:47;;;;;;;0.20;0.20;;;;;;;;;;7384856;19;20121;-63
2022/11/13 06:48:13;;;;;;;0.43;0.43;;;;;;;;;;7384258;19;20497;-63
2022/11/13 06:50:38;;;;;;;0.30;0.30;;;;;;;;;;7384191;19;20125;-63
2022/11/13 06:53:03;;;;;;;0.20;0.20;;;;;;;;;;7380933;19;20598;-63
2022/11/13 06:55:29;;;;;;;0.30;0.30;;;;;;;;;;7393022;19;20117;-63
2022/11/13 06:57:54;;;;;;;0.20;0.20;;;;;;;;;;7389538;19;20136;-63
2022/11/13 07:00:19;;;;;;;0.40;0.40;;;;;;;;;;7388606;19;20499;-63
2022/11/13 07:02:48;;;;;;;0.20;0.20;;;;;;;;;;7390434;19;20144;-63
2022/11/13 07:05:13;;;;;;;0.30;0.30;;;;;;;;;;7392886;19;20475;-63
2022/11/13 07:07:39;;;;;;;0.30;0.30;;;;;;;;;;7390753;19;20493;-63
2022/11/13 07:10:04;;;;;;;0.20;0.20;;;;;;;;;;7388696;19;20133;-63
2022/11/13 07:12:30;;;;;;;0.20;0.20;;;;;;;;;;7391326;19;20153;-63
2022/11/13 07:14:55;;;;;;;0.20;0.20;;;;;;;;;;7387663;19;20225;-63
2022/11/13 07:17:20;;;;;;;0.30;0.30;;;;;;;;;;7392859;19;20136;-63
2022/11/13 07:19:45;;;;;;;0.20;0.20;;;;;;;;;;7389011;19;20137;-63
2022/11/13 07:22:11;;;;;;;0.20;0.20;;;;;;;;;;7391375;19;20467;-63
2022/11/13 07:24:36;;;;;;;0.20;0.20;;;;;;;;;;7391783;19;20121;-64
2022/11/13 07:27:01;;;;;;;0.20;0.20;;;;;;;;;;7390327;19;20144;-63
2022/11/13 07:29:27;;;;;;;0.30;0.30;;;;;;;;;;7391117;19;20168;-63
2022/11/13 07:31:52;;;;;;;0.30;0.30;;;;;;;;;;7389688;19;20144;-63
2022/11/13 07:34:17;;;;;;;0.20;0.20;;;;;;;;;;7391032;19;20113;-63
2022/11/13 07:36:43;;;;;;;0.40;0.40;;;;;;;;;;7390221;19;20152;-63
2022/11/13 07:39:08;;;;;;;0.30;0.30;;;;;;;;;;7385034;19;20145;-63
2022/11/13 07:41:33;;;;;;;0.20;0.20;;;;;;;;;;7387954;19;20121;-63
2022/11/13 07:43:58;;;;;;;0.93;0.93;;;;;;;;;;7392453;19;20124;-63
2022/11/13 07:46:24;;;;;;;0.30;0.30;;;;;;;;;;7390730;19;20623;-63
2022/11/13 07:48:49;;;;;;;0.20;0.20;;;;;;;;;;7389355;19;20607;-63
2022/11/13 07:51:14;;;;;;;0.30;0.30;;;;;;;;;;7389986;19;20113;-63
2022/11/13 07:53:40;;;;;;;0.20;0.20;;;;;;;;;;7381514;19;20133;-63
2022/11/13 07:56:06;;;;;;;0.30;0.30;;;;;;;;;;7389403;19;20121;-63
2022/11/13 07:58:31;;;;;;;0.30;0.30;;;;;;;;;;7387177;19;20229;-63
2022/11/13 08:01:04;;;;;;;0.30;0.30;;;;;;;;;;7390276;19;20124;-63
2022/11/13 08:03:29;;;;;;;0.30;0.30;;;;;;;;;;7387593;19;20149;-63
2022/11/13 08:06:03;;;;;;;0.30;0.30;;;;;;;;;;7389940;19;20184;-63
2022/11/13 08:08:29;;;;;;;0.30;0.30;;;;;;;;;;7386039;19;20151;-63
2022/11/13 08:10:55;;;;;;;0.30;0.30;;;;;;;;;;7380495;19;20133;-63
2022/11/13 08:13:20;;;;;;;0.30;0.30;;;;;;;;;;7373687;19;20121;-64
2022/11/13 08:15:45;;;;;;;0.77;0.77;;;;;;;;;;7384800;19;20132;-63
2022/11/13 08:18:11;;;;;;;0.37;0.37;;;;;;;;;;7380447;19;20140;-63
2022/11/13 08:20:36;;;;;;;0.30;0.30;;;;;;;;;;7385402;19;20117;-63
2022/11/13 08:23:03;;;;;;;1.30;0.60;;;;;;;;;;7389301;19;20120;-63
2022/11/13 08:25:29;;;;;;;0.30;0.30;;;;;;;;;;7386335;19;20154;-63
2022/11/13 08:27:55;;;;;;;0.30;0.30;;;;;;;;;;7384320;19;20181;-63
2022/11/13 08:30:21;;;;;;;1.43;0.70;;;;;;;;;;7384111;19;20166;-63
2022/11/13 08:32:47;;;;;;;2.10;0.40;;;;;;;;;;7385840;19;20149;-63
2022/11/13 08:35:12;;;;;;;0.30;0.30;;;;;;;;;;7386689;19;20131;-63
2022/11/13 08:37:37;;;;;;;0.40;0.40;;;;;;;;;;7388971;19;20180;-63
2022/11/13 08:40:03;;;;;;;0.30;0.30;;;;;;;;;;7386988;19;20590;-63
2022/11/13 08:42:28;;;;;;;0.20;0.20;;;;;;;;;;7387852;19;20622;-63
2022/11/13 08:44:54;;;;;;;0.20;0.20;;;;;;;;;;7389454;19;20346;-63
2022/11/13 08:47:19;;;;;;;0.30;0.30;;;;;;;;;;7389261;19;20120;-63
2022/11/13 08:49:44;;;;;;;0.20;0.20;;;;;;;;;;7387696;19;20156;-64
2022/11/13 08:52:10;;;;;;;0.30;0.30;;;;;;;;;;7387791;19;20120;-63
2022/11/13 08:54:35;;;;;;;0.67;0.67;;;;;;;;;;7386615;19;20153;-63
2022/11/13 08:57:00;;;;;;;0.20;0.20;;;;;;;;;;7389456;19;20137;-63
2022/11/13 08:59:26;;;;;;;0.30;0.30;;;;;;;;;;7383754;19;20169;-63
2022/11/13 09:01:57;;;;;;;0.30;0.30;;;;;;;;;;7388718;19;20127;-63
2022/11/13 09:04:23;;;;;;;0.30;0.30;;;;;;;;;;7385837;19;20129;-63
2022/11/13 09:06:48;;;;;;;0.20;0.20;;;;;;;;;;7393834;19;20816;-63
2022/11/13 09:09:13;;;;;;;0.30;0.30;;;;;;;;;;7392758;19;20149;-63
2022/11/13 09:11:39;;;;;;;0.30;0.30;;;;;;;;;;7396466;19;20138;-63
2022/11/13 09:14:04;;;;;;;0.30;0.30;;;;;;;;;;7392782;19;20487;-63
2022/11/13 09:16:29;;;;;;;0.40;0.40;;;;;;;;;;7395514;19;20120;-63
2022/11/13 09:18:54;;;;;;;0.20;0.20;;;;;;;;;;7394686;19;20213;-63
2022/11/13 09:21:20;;;;;;;0.40;0.40;;;;;;;;;;7396662;19;20517;-63
2022/11/13 09:23:45;;;;;;;0.60;0.60;;;;;;;;;;7385004;19;20125;-63
2022/11/13 09:26:10;;;;;;;0.30;0.30;;;;;;;;;;7395678;19;20145;-63
2022/11/13 09:28:36;;;;;;;0.30;0.30;;;;;;;;;;7392214;19;20628;-63
2022/11/13 09:31:05;;;;;;;0.20;0.20;;;;;;;;;;7393349;19;20204;-63
2022/11/13 09:33:30;;;;;;;0.30;0.30;;;;;;;;;;7392060;19;20121;-63
2022/11/13 09:35:56;;;;;;;0.20;0.20;;;;;;;;;;7392855;19;20124;-63
2022/11/13 09:38:21;;;;;;;0.30;0.30;;;;;;;;;;7395951;19;20149;-63
2022/11/13 09:40:53;;;;;;;0.20;0.20;;;;;;;;;;7392818;19;20133;-63
2022/11/13 09:43:44;;;;;;;0.30;0.30;;;;;;;;;;7394356;19;20139;-63
2022/11/13 09:46:42;;;;;;;0.20;0.20;;;;;;;;;;7394675;19;20493;-63
2022/11/13 09:49:08;;;;;;;0.27;0.27;;;;;;;;;;7391004;19;20185;-63
2022/11/13 09:51:37;;;;;;;0.20;0.20;;;;;;;;;;7393585;19;20124;-63
2022/11/13 09:54:06;;;;;;;0.20;0.20;;;;;;;;;;7391681;19;20125;-63
2022/11/13 09:56:37;;;;;;;0.30;0.30;;;;;;;;;;7391871;19;20153;-63
2022/11/13 09:59:21;;;;;;;0.30;0.30;;;;;;;;;;7392753;19;20144;-63
2022/11/13 10:02:18;;;;;;;0.50;0.40;;;;;;;;;;7387985;19;20132;-63
2022/11/13 10:05:03;;;;;;;0.30;0.30;;;;;;;;;;7392320;19;20183;-63
2022/11/13 10:07:38;;;;;;;0.20;0.20;;;;;;;;;;7391121;19;20487;-63
2022/11/13 10:10:15;;;;;;;0.57;0.57;;;;;;;;;;7391804;19;20148;-63
2022/11/13 10:12:41;;;;;;;0.27;0.27;;;;;;;;;;7391078;19;20124;-63
2022/11/13 10:15:08;;;;;;;0.20;0.20;;;;;;;;;;7389953;19;20185;-63
2022/11/13 10:17:45;;;;;;;0.20;0.20;;;;;;;;;;7389157;19;20125;-63
2022/11/13 10:20:14;;;;;;;0.63;0.63;;;;;;;;;;7391042;19;20156;-63
2022/11/13 10:22:50;;;;;;;0.50;0.50;;;;;;;;;;7390423;19;20121;-63
2022/11/13 10:25:19;;;;;;;0.30;0.30;;;;;;;;;;7391732;19;20145;-63
2022/11/13 10:27:51;;;;;;;0.30;0.30;;;;;;;;;;7391950;19;20132;-63
2022/11/13 10:30:17;;;;;;;0.30;0.30;;;;;;;;;;7387886;19;20619;-63
2022/11/13 10:32:43;;;;;;;0.20;0.20;;;;;;;;;;7391320;19;20124;-63
2022/11/13 10:35:34;;;;;;;0.23;0.23;;;;;;;;;;7389288;19;20145;-63
2022/11/13 10:38:17;;;;;;;0.30;0.30;;;;;;;;;;7392950;19;20450;-63
2022/11/13 10:40:42;;;;;;;0.30;0.30;;;;;;;;;;7389707;19;20597;-63
2022/11/13 10:43:22;;;;;;;0.20;0.20;;;;;;;;;;7390512;19;20189;-63
2022/11/13 10:45:56;;;;;;;0.20;0.20;;;;;;;;;;7389522;19;20591;-63
2022/11/13 10:48:25;;;;;;;0.40;0.40;;;;;;;;;;7390900;19;20153;-63
2022/11/13 10:50:58;;;;;;;0.27;0.27;;;;;;;;;;7387069;19;20590;-63
2022/11/13 10:53:25;;;;;;;0.30;0.30;;;;;;;;;;7381628;19;20171;-63
2022/11/13 10:55:52;;;;;;;0.23;0.23;;;;;;;;;;7388144;19;20157;-63
2022/11/13 10:58:18;;;;;;;0.30;0.30;;;;;;;;;;7390554;19;20158;-63
2022/11/13 11:00:47;;;;;;;0.77;0.60;;;;;;;;;;7390633;19;20136;-63
2022/11/13 11:03:31;;;;;;;0.30;0.30;;;;;;;;;;7386596;19;20516;-63
2022/11/13 11:06:01;;;;;;;0.20;0.20;;;;;;;;;;7387035;19;20136;-63
2022/11/13 11:08:35;;;;;;;0.20;0.20;;;;;;;;;;7389408;19;20149;-63
2022/11/13 11:13:49;;;;;;;0.37;0.37;;;;;;;;;;7384888;19;20155;-63
2022/11/13 11:16:20;;;;;;;0.20;0.20;;;;;;;;;;7377094;19;20117;-63
2022/11/13 11:18:46;;;;;;;0.30;0.30;;;;;;;;;;7366472;19;20233;-63
2022/11/13 11:21:15;;;;;;;0.30;0.30;;;;;;;;;;7374117;19;20129;-63
2022/11/13 11:23:49;;;;;;;0.30;0.30;;;;;;;;;;7376251;19;20125;-63
2022/11/13 11:26:19;;;;;;;0.30;0.30;;;;;;;;;;7379278;19;20129;-63
2022/11/13 11:28:52;;;;;;;0.20;0.20;;;;;;;;;;7366486;19;20186;-63
2022/11/13 11:31:27;;;;;;;0.30;0.30;;;;;;;;;;7383984;19;20124;-63
2022/11/13 11:34:01;;;;;;;0.30;0.30;;;;;;;;;;7378637;19;20143;-63
2022/11/13 11:36:33;;;;;;;0.30;0.30;;;;;;;;;;7366233;19;20632;-63
2022/11/13 11:39:01;;;;;;;0.23;0.23;;;;;;;;;;7361269;19;20228;-63
2022/11/13 11:41:31;;;;;;;0.30;0.30;;;;;;;;;;7369493;19;20121;-63
2022/11/13 11:44:13;;;;;;;0.30;0.30;;;;;;;;;;7376457;19;20149;-63
2022/11/13 11:46:38;;;;;;;0.20;0.20;;;;;;;;;;7369667;19;20131;-63
2022/11/13 11:49:04;;;;;;;0.20;0.20;;;;;;;;;;7370392;19;21233;-63
2022/11/13 11:52:02;;;;;;;0.20;0.20;;;;;;;;;;7367820;19;20125;-63
2022/11/13 11:54:42;;;;;;;0.30;0.30;;;;;;;;;;7369692;19;20144;-63
2022/11/13 11:57:30;;;;;;;0.30;0.30;;;;;;;;;;7373432;19;20147;-63
2022/11/13 12:00:11;;;;;;;0.20;0.20;;;;;;;;;;7360501;19;20156;-63
2022/11/13 12:02:58;;;;;;;0.20;0.20;;;;;;;;;;7359435;19;20229;-63
2022/11/13 12:05:29;;;;;;;0.30;0.30;;;;;;;;;;7372002;19;20132;-63
2022/11/13 12:08:02;;;;;;;0.30;0.30;;;;;;;;;;7373821;19;20121;-63
2022/11/13 12:10:45;;;;;;;0.20;0.20;;;;;;;;;;7383854;19;20136;-63
2022/11/13 12:13:27;;;;;;;0.30;0.30;;;;;;;;;;7379852;19;20127;-63
2022/11/13 12:16:08;;;;;;;0.20;0.20;;;;;;;;;;7385036;19;20649;-64
2022/11/13 12:18:55;;;;;;;0.30;0.30;;;;;;;;;;7382171;19;20152;-63
2022/11/13 12:21:22;;;;;;;0.20;0.20;;;;;;;;;;7385432;19;20591;-63
2022/11/13 12:24:03;;;;;;;0.57;0.57;;;;;;;;;;7371738;19;20419;-63
2022/11/13 12:26:50;;;;;;;0.20;0.20;;;;;;;;;;7374321;19;20582;-63
2022/11/13 12:29:39;;;;;;;0.23;0.23;;;;;;;;;;7380242;19;20575;-63
2022/11/13 12:32:32;;;;;;;0.30;0.30;;;;;;;;;;7358500;19;20153;-63
2022/11/13 12:35:02;;;;;;;1.80;1.23;;;;;;;;;;7366821;19;20128;-63
2022/11/13 12:37:56;;;;;;;0.30;0.30;;;;;;;;;;7367227;19;20145;-63
2022/11/13 12:40:43;;;;;;;0.20;0.20;;;;;;;;;;7367127;19;20149;-64
2022/11/13 12:43:30;;;;;;;0.20;0.20;;;;;;;;;;7379415;19;20148;-63
2022/11/13 12:45:59;;;;;;;0.20;0.20;;;;;;;;;;7357831;19;20174;-63
2022/11/13 12:48:37;;;;;;;0.23;0.23;;;;;;;;;;7379203;19;20184;-63
2022/11/13 12:51:13;;;;;;;0.30;0.30;;;;;;;;;;7375854;19;20192;-63
2022/11/13 12:53:45;;;;;;;0.30;0.30;;;;;;;;;;7371830;19;20144;-65
2022/11/13 12:56:25;;;;;;;0.20;0.20;;;;;;;;;;7378946;19;20117;-63
2022/11/13 12:59:10;;;;;;;0.20;0.20;;;;;;;;;;7374536;19;20518;-63
2022/11/13 13:01:42;;;;;;;0.30;0.30;;;;;;;;;;7373081;19;20125;-63
2022/11/13 13:04:33;;;;;;;0.20;0.20;;;;;;;;;;7377347;19;20132;-65
2022/11/13 13:07:03;;;;;;;0.27;0.27;;;;;;;;;;7373385;19;21750;-65
2022/11/13 13:09:32;;;;;;;0.20;0.20;;;;;;;;;;7376017;19;20216;-64
2022/11/13 13:12:00;;;;;;;0.20;0.20;;;;;;;;;;7388272;19;20123;-63
2022/11/13 13:14:49;;;;;;;0.20;0.20;;;;;;;;;;7375158;19;20129;-63
2022/11/13 13:17:16;;;;;;;0.20;0.20;;;;;;;;;;7381231;19;20579;-63
2022/11/13 13:19:41;;;;;;;0.30;0.30;;;;;;;;;;7383928;19;20726;-65
2022/11/13 13:22:22;;;;;;;0.30;0.30;;;;;;;;;;7381113;19;20121;-63
2022/11/13 13:24:57;;;;;;;0.30;0.30;;;;;;;;;;7387105;19;20128;-64
2022/11/13 13:27:25;;;;;;;0.20;0.20;;;;;;;;;;7384623;19;20496;-63
2022/11/13 13:29:50;;;;;;;0.20;0.20;;;;;;;;;;7387005;19;20156;-63
2022/11/13 13:32:18;;;;;;;0.30;0.30;;;;;;;;;;7385987;19;20763;-65
2022/11/13 13:34:49;;;;;;;0.23;0.23;;;;;;;;;;7389049;19;20715;-64
2022/11/13 13:37:24;;;;;;;0.57;0.57;;;;;;;;;;7388411;19;20615;-64
2022/11/13 13:40:28;;;;;;;0.30;0.30;;;;;;;;;;7380787;19;20152;-63
2022/11/13 13:43:12;;;;;;;0.30;0.30;;;;;;;;;;7386149;19;20208;-63
2022/11/13 13:46:16;;;;;;;0.20;0.20;;;;;;;;;;7390586;19;20213;-63
2022/11/13 13:48:44;;;;;;;0.90;0.90;;;;;;;;;;7382719;19;20171;-63
2022/11/13 13:51:21;;;;;;;0.30;0.30;;;;;;;;;;7388191;19;20131;-63
2022/11/13 13:53:48;;;;;;;0.30;0.30;;;;;;;;;;7390990;19;20129;-63
2022/11/13 13:56:13;;;;;;;0.30;0.30;;;;;;;;;;7395202;19;20137;-63
2022/11/13 13:58:39;;;;;;;0.20;0.20;;;;;;;;;;7385257;19;20172;-63
2022/11/13 14:01:10;;;;;;;0.30;0.30;;;;;;;;;;7390539;19;20136;-63
2022/11/13 14:03:35;;;;;;;0.20;0.20;;;;;;;;;;7391131;19;20168;-63
2022/11/13 14:06:28;;;;;;;0.30;0.30;;;;;;;;;;7384334;19;20109;-63
2022/11/13 14:08:53;;;;;;;0.30;0.30;;;;;;;;;;7391137;19;20252;-65
2022/11/13 14:11:28;;;;;;;0.30;0.30;;;;;;;;;;7392688;19;20138;-63
2022/11/13 14:13:53;;;;;;;0.30;0.30;;;;;;;;;;7390486;19;20121;-63
2022/11/13 14:16:19;;;;;;;0.30;0.30;;;;;;;;;;7396302;19;20121;-63
2022/11/13 14:18:44;;;;;;;0.30;0.30;;;;;;;;;;7377838;19;20153;-64
2022/11/13 14:21:21;;;;;;;0.30;0.30;;;;;;;;;;7369191;19;20125;-63
2022/11/13 14:23:51;;;;;;;0.30;0.30;;;;;;;;;;7392546;19;20139;-63
2022/11/13 14:26:16;;;;;;;0.30;0.30;;;;;;;;;;7391284;19;20136;-63
2022/11/13 14:28:52;;;;;;;0.20;0.20;;;;;;;;;;7390931;19;20164;-63
2022/11/13 14:31:18;;;;;;;0.20;0.20;;;;;;;;;;7393016;19;20136;-63
2022/11/13 14:33:46;;;;;;;0.20;0.20;;;;;;;;;;7390362;19;20121;-63
2022/11/13 14:36:13;;;;;;;0.30;0.30;;;;;;;;;;7388717;19;20137;-63
2022/11/13 14:38:45;;;;;;;0.20;0.20;;;;;;;;;;7390960;19;20502;-64
2022/11/13 14:41:40;;;;;;;0.20;0.20;;;;;;;;;;7391334;19;20125;-63
2022/11/13 14:44:08;;;;;;;0.20;0.20;;;;;;;;;;7392978;19;20152;-63
2022/11/13 14:46:34;;;;;;;0.30;0.30;;;;;;;;;;7389978;19;20113;-63
2022/11/13 14:49:00;;;;;;;1.53;1.43;;;;;;;;;;7392818;19;20159;-63
2022/11/13 14:51:28;;;;;;;0.30;0.30;;;;;;;;;;7389478;19;20109;-63
2022/11/13 14:54:04;;;;;;;0.30;0.30;;;;;;;;;;7385727;19;20179;-65
2022/11/13 14:56:35;;;;;;;0.30;0.30;;;;;;;;;;7390260;19;20121;-63
2022/11/13 14:59:09;;;;;;;0.20;0.20;;;;;;;;;;7390239;19;20148;-63
2022/11/13 15:01:35;;;;;;;0.20;0.20;;;;;;;;;;7390179;19;20196;-63
2022/11/13 15:04:00;;;;;;;0.20;0.20;;;;;;;;;;7386217;19;20138;-63
2022/11/13 15:06:38;;;;;;;0.30;0.30;;;;;;;;;;7387146;19;20117;-63
2022/11/13 15:09:10;;;;;;;0.30;0.30;;;;;;;;;;7382780;19;20157;-63
2022/11/13 15:11:39;;;;;;;0.20;0.20;;;;;;;;;;7385049;19;20121;-63
2022/11/13 15:14:09;;;;;;;0.40;0.40;;;;;;;;;;7389000;19;20129;-63
2022/11/13 15:16:35;;;;;;;0.20;0.20;;;;;;;;;;7391145;19;20120;-63
2022/11/13 15:19:01;;;;;;;0.30;0.30;;;;;;;;;;7388062;19;20152;-63
2022/11/13 15:21:27;;;;;;;0.30;0.30;;;;;;;;;;7390594;19;20618;-63
2022/11/13 15:23:52;;;;;;;0.23;0.23;;;;;;;;;;7390427;19;20117;-64
2022/11/13 15:26:18;;;;;;;0.30;0.30;;;;;;;;;;7390497;19;20583;-64
2022/11/13 15:28:43;;;;;;;0.23;0.23;;;;;;;;;;7389994;19;20159;-63
2022/11/13 15:31:20;;;;;;;0.20;0.20;;;;;;;;;;7391833;19;20463;-63
2022/11/13 15:33:46;;;;;;;0.67;0.67;;;;;;;;;;7389071;19;20117;-63
2022/11/13 15:36:11;;;;;;;0.20;0.20;;;;;;;;;;7389668;19;20133;-63
2022/11/13 15:38:37;;;;;;;0.30;0.30;;;;;;;;;;7391077;19;20205;-63
2022/11/13 15:41:09;;;;;;;0.30;0.30;;;;;;;;;;7390466;19;20474;-62
2022/11/13 15:43:34;;;;;;;0.20;0.20;;;;;;;;;;7390383;19;20153;-63
2022/11/13 15:46:00;;;;;;;0.20;0.20;;;;;;;;;;7390948;19;20527;-63
2022/11/13 15:48:25;;;;;;;0.30;0.30;;;;;;;;;;7388992;19;20143;-64
2022/11/13 15:50:51;;;;;;;0.30;0.30;;;;;;;;;;7383332;19;20140;-63